createdAt,value
2022-11-13T16:53:35.369Z,4.60
2022-11-13T16:56:03.224Z,4.60
2022-11-13T16:58:31.109Z,4.60
2022-11-13T17:01:00.190Z,4.60
2022-11-13T17:03:28.603Z,4.70
2022-11-13T17:05:56.706Z,4.80
2022-11-13T17:08:24.582Z,4.70
2022-11-13T17:10:58.443Z,4.70
2022-11-13T17:13:26.652Z,4.60
2022-11-13T17:15:54.785Z,4.50
2022-11-13T17:18:22.636Z,4.70
2022-11-13T17:20:51.745Z,4.70
2022-11-13T17:23:19.999Z,4.80
2022-11-13T17:25:48.127Z,4.70
2022-11-13T17:28:17.329Z,4.60
2022-11-13T17:30:45.179Z,4.70
2022-11-13T17:33:13.041Z,4.80
2022-11-13T17:35:40.940Z,4.90
2022-11-13T17:38:08.781Z,4.70
2022-11-13T17:40:36.630Z,4.70
2022-11-13T17:43:04.480Z,4.60
2022-11-13T17:49:24.707Z,5.20
2022-11-13T17:51:54.045Z,4.90
2022-11-13T17:54:46.652Z,4.80
2022-11-13T17:57:16.339Z,4.90
2022-11-13T18:00:03.341Z,5.00
2022-11-13T18:02:56.459Z,4.90
2022-11-13T18:05:28.673Z,4.90
2022-11-13T18:07:56.555Z,4.90
2022-11-13T18:10:24.572Z,4.90
2022-11-13T18:12:52.574Z,4.90
2022-11-13T18:15:20.667Z,4.90
2022-11-13T18:17:48.687Z,5.00
2022-11-13T18:20:17.361Z,5.10
2022-11-13T18:22:46.707Z,5.10
2022-11-13T18:25:14.670Z,5.20
2022-11-13T18:27:44.087Z,5.10
2022-11-13T18:30:12.569Z,5.10
2022-11-13T18:32:40.628Z,5.00
2022-11-13T18:35:09.319Z,4.90
2022-11-13T18:37:37.423Z,4.90
2022-11-13T18:40:08.380Z,4.90
2022-11-13T18:42:36.363Z,5.00
2022-11-13T18:45:06.188Z,5.00
2022-11-13T18:47:34.438Z,4.90
2022-11-13T18:50:02.604Z,4.90
2022-11-13T18:52:30.931Z,4.80
2022-11-13T18:54:58.904Z,4.90
2022-11-13T18:57:28.418Z,4.90
2022-11-13T18:59:56.403Z,4.90
2022-11-13T19:02:25.097Z,5.00
2022-11-13T19:04:53.121Z,5.00
2022-11-13T19:07:21.148Z,4.80
2022-11-13T19:09:50.498Z,4.70
2022-11-13T19:12:18.520Z,4.90
2022-11-13T19:14:47.836Z,4.90
2022-11-13T19:17:15.782Z,4.70
2022-11-13T19:19:44.504Z,4.80
2022-11-13T19:22:12.410Z,4.70
2022-11-13T19:24:40.472Z,4.80
2022-11-13T19:27:08.733Z,4.80
2022-11-13T19:41:00.645Z,4.70
2022-11-13T19:43:28.895Z,4.70
2022-11-13T19:45:56.923Z,4.70
2022-11-13T19:48:24.811Z,4.80
2022-11-13T19:50:52.878Z,4.80
2022-11-13T19:53:20.781Z,4.80
2022-11-13T19:55:55.162Z,4.70
2022-11-13T19:58:24.581Z,4.70
2022-11-13T20:00:53.234Z,4.70
2022-11-13T20:03:21.227Z,4.80
2022-11-13T20:05:52.705Z,4.80
2022-11-13T20:08:24.137Z,4.80
2022-11-13T20:10:54.917Z,4.70
2022-11-13T20:13:24.256Z,4.70
2022-11-13T20:15:54.664Z,4.60
2022-11-13T20:18:22.635Z,4.70
2022-11-13T20:20:54.639Z,4.80
2022-11-13T20:23:23.175Z,4.80
2022-11-13T20:25:55.060Z,4.80
2022-11-13T20:28:24.539Z,4.70
2022-11-13T20:30:52.617Z,4.60
2022-11-13T20:33:22.765Z,4.70
2022-11-13T20:35:54.676Z,4.60
2022-11-13T20:38:22.589Z,4.50
2022-11-13T20:40:51.290Z,4.60
2022-11-13T20:43:19.248Z,4.50
2022-11-13T20:45:48.677Z,4.50
2022-11-13T20:48:16.681Z,4.60
2022-11-13T20:50:44.732Z,4.60
2022-11-13T20:53:12.693Z,4.60
2022-11-13T20:55:40.745Z,4.60
2022-11-13T20:58:08.686Z,4.70
2022-11-13T21:00:36.636Z,4.60
2022-11-13T21:03:05.990Z,4.50
2022-11-13T21:05:33.959Z,4.40
2022-11-13T21:08:02.071Z,4.60
2022-11-13T21:10:29.996Z,4.60
2022-11-13T21:12:57.921Z,4.50
2022-11-13T21:15:25.850Z,4.50
2022-11-13T21:17:53.940Z,4.60
2022-11-13T21:20:23.413Z,4.60
2022-11-13T21:22:51.342Z,4.50
2022-11-13T21:25:19.753Z,4.40
2022-11-13T21:27:47.662Z,4.40
2022-11-13T21:30:16.110Z,4.30
2022-11-13T21:32:44.110Z,4.30
2022-11-13T21:35:12.064Z,4.20
2022-11-13T21:37:41.552Z,4.40
2022-11-13T21:40:10.752Z,4.30
2022-11-13T21:42:38.747Z,4.40
2022-11-13T21:45:07.678Z,4.40
2022-11-13T21:47:35.604Z,4.30
2022-11-13T21:50:03.640Z,4.50
2022-11-13T21:52:31.860Z,4.50
2022-11-13T21:55:01.174Z,4.50
2022-11-13T21:57:29.400Z,4.40
2022-11-13T21:59:57.381Z,4.20
2022-11-13T22:02:25.485Z,4.20
2022-11-13T22:04:53.565Z,4.30
2022-11-13T22:07:21.653Z,4.30
2022-11-13T22:09:49.621Z,4.40
2022-11-13T22:12:19.000Z,4.40
2022-11-13T22:14:47.073Z,4.20
2022-11-13T22:17:15.086Z,4.10
2022-11-13T22:19:43.158Z,4.10
2022-11-13T22:22:11.123Z,4.20
2022-11-13T22:24:39.051Z,3.90
2022-11-13T22:27:06.971Z,4.10
2022-11-13T22:29:36.235Z,4.10
2022-11-13T22:32:04.283Z,4.00
2022-11-13T22:34:32.269Z,4.10
2022-11-13T22:37:00.369Z,4.00
2022-11-13T22:39:28.421Z,4.00
2022-11-13T22:41:56.433Z,4.00
2022-11-13T22:44:28.687Z,4.00
2022-11-13T22:47:09.501Z,4.00
2022-11-13T22:49:37.669Z,3.90
2022-11-13T22:52:05.844Z,3.90
2022-11-13T22:54:33.833Z,4.00
2022-11-13T22:57:04.172Z,4.00
2022-11-13T22:59:32.367Z,4.10
2022-11-13T23:02:00.393Z,4.00
2022-11-13T23:04:29.937Z,4.00
2022-11-13T23:06:58.017Z,3.80
2022-11-13T23:09:27.178Z,3.80
2022-11-13T23:11:55.044Z,3.70
2022-11-13T23:14:23.024Z,3.60
2022-11-13T23:16:51.117Z,3.60
2022-11-13T23:19:19.039Z,3.70
2022-11-13T23:21:48.990Z,3.70
2022-11-13T23:24:16.956Z,3.60
2022-11-13T23:26:44.831Z,3.70
2022-11-13T23:29:13.250Z,3.50
2022-11-13T23:31:41.140Z,3.50
2022-11-13T23:34:09.183Z,3.50
2022-11-13T23:36:37.104Z,3.60
2022-11-13T23:39:06.409Z,3.40
2022-11-13T23:41:37.358Z,3.40
2022-11-13T23:44:09.136Z,3.50
2022-11-13T23:46:37.411Z,3.70
2022-11-13T23:49:05.331Z,3.50
2022-11-13T23:51:33.684Z,3.30
2022-11-13T23:54:01.698Z,3.40
2022-11-13T23:56:31.107Z,3.20
2022-11-13T23:58:59.071Z,3.30
